sensor_id;sensor_type;location;lat;lon;timestamp;temperature;humidity
14014;DHT22;49110;52.584;13.408;2023-01-04T00:00:49;6.90;99.90
14014;DHT22;49110;52.584;13.408;2023-01-04T00:01:49;6.90;99.90
14014;DHT22;49110;52.584;13.408;2023-01-04T00:02:49;6.90;99.90
14014;DHT22;49110;52.584;13.408;2023-01-04T00:03:50;6.90;99.90
14014;DHT22;49110;52.584;13.408;2023-01-04T00:04:51;6.90;99.90
14014;DHT22;49110;52.584;13.408;2023-01-04T00:05:52;6.90;99.90
14014;DHT22;49110;52.584;13.408;2023-01-04T00:06:52;7.00;99.90
14014;DHT22;49110;52.584;13.408;2023-01-04T00:07:53;7.00;99.90
14014;DHT22;49110;52.584;13.408;2023-01-04T00:08:53;7.00;99.90
14014;DHT22;49110;52.584;13.408;2023-01-04T00:09:54;7.00;99.90
14014;DHT22;49110;52.584;13.408;2023-01-04T00:11:02;7.10;99.90
14014;DHT22;49110;52.584;13.408;2023-01-04T00:12:03;7.10;99.90
14014;DHT22;49110;52.584;13.408;2023-01-04T00:13:03;7.10;99.90
14014;DHT22;49110;52.584;13.408;2023-01-04T00:14:04;7.10;99.90
14014;DHT22;49110;52.584;13.408;2023-01-04T00:15:05;7.10;99.90
14014;DHT22;49110;52.584;13.408;2023-01-04T00:16:11;7.20;99.90
14014;DHT22;49110;52.584;13.408;2023-01-04T00:17:12;7.20;99.90
14014;DHT22;49110;52.584;13.408;2023-01-04T00:18:12;7.20;99.90
14014;DHT22;49110;52.584;13.408;2023-01-04T00:19:13;7.20;99.90
14014;DHT22;49110;52.584;13.408;2023-01-04T00:20:14;7.20;99.90
14014;DHT22;49110;52.584;13.408;2023-01-04T00:21:23;7.20;99.90
14014;DHT22;49110;52.584;13.408;2023-01-04T00:22:24;7.20;99.90
14014;DHT22;49110;52.584;13.408;2023-01-04T00:23:24;7.20;99.90
14014;DHT22;49110;52.584;13.408;2023-01-04T00:24:24;7.20;99.90
14014;DHT22;49110;52.584;13.408;2023-01-04T00:25:25;7.20;99.90
14014;DHT22;49110;52.584;13.408;2023-01-04T00:26:29;7.20;99.90
14014;DHT22;49110;52.584;13.408;2023-01-04T00:27:29;7.10;99.90
14014;DHT22;49110;52.584;13.408;2023-01-04T00:28:30;7.10;99.90
14014;DHT22;49110;52.584;13.408;2023-01-04T00:29:30;7.10;99.90
14014;DHT22;49110;52.584;13.408;2023-01-04T00:30:32;7.10;99.90
14014;DHT22;49110;52.584;13.408;2023-01-04T00:31:33;7.10;99.90
14014;DHT22;49110;52.584;13.408;2023-01-04T00:32:34;7.20;99.90
14014;DHT22;49110;52.584;13.408;2023-01-04T00:33:35;7.10;99.90
14014;DHT22;49110;52.584;13.408;2023-01-04T00:34:35;7.20;99.90
14014;DHT22;49110;52.584;13.408;2023-01-04T00:35:36;7.20;99.90
14014;DHT22;49110;52.584;13.408;2023-01-04T00:36:36;7.20;99.90
14014;DHT22;49110;52.584;13.408;2023-01-04T00:37:37;7.20;99.90
14014;DHT22;49110;52.584;13.408;2023-01-04T00:38:38;7.20;99.90
14014;DHT22;49110;52.584;13.408;2023-01-04T00:39:38;7.20;99.90
14014;DHT22;49110;52.584;13.408;2023-01-04T00:40:39;7.20;99.90
14014;DHT22;49110;52.584;13.408;2023-01-04T00:41:43;7.20;99.90
14014;DHT22;49110;52.584;13.408;2023-01-04T00:42:44;7.10;99.90
14014;DHT22;49110;52.584;13.408;2023-01-04T00:43:44;7.10;99.90
14014;DHT22;49110;52.584;13.408;2023-01-04T00:44:45;7.10;99.90
14014;DHT22;49110;52.584;13.408;2023-01-04T00:45:45;7.10;99.90
14014;DHT22;49110;52.584;13.408;2023-01-04T00:46:46;7.10;99.90
14014;DHT22;49110;52.584;13.408;2023-01-04T00:47:47;7.10;99.90
14014;DHT22;49110;52.584;13.408;2023-01-04T00:48:47;7.20;99.90
14014;DHT22;49110;52.584;13.408;2023-01-04T00:49:47;7.10;99.90
14014;DHT22;49110;52.584;13.408;2023-01-04T00:50:49;7.10;99.90
14014;DHT22;49110;52.584;13.408;2023-01-04T00:51:49;7.10;99.90
14014;DHT22;49110;52.584;13.408;2023-01-04T00:52:50;7.10;99.90
14014;DHT22;49110;52.584;13.408;2023-01-04T00:53:50;7.10;99.90
14014;DHT22;49110;52.584;13.408;2023-01-04T00:54:52;7.10;99.90
14014;DHT22;49110;52.584;13.408;2023-01-04T00:55:58;7.10;99.90
14014;DHT22;49110;52.584;13.408;2023-01-04T00:56:58;7.10;99.90
14014;DHT22;49110;52.584;13.408;2023-01-04T00:58:00;7.10;99.90
14014;DHT22;49110;52.584;13.408;2023-01-04T00:59:02;7.10;99.90
14014;DHT22;49110;52.584;13.408;2023-01-04T01:00:02;7.20;99.90
14014;DHT22;49110;52.584;13.408;2023-01-04T01:01:07;7.20;99.90
14014;DHT22;49110;52.584;13.408;2023-01-04T01:02:08;7.20;99.90
14014;DHT22;49110;52.584;13.408;2023-01-04T01:03:08;7.10;99.90
14014;DHT22;49110;52.584;13.408;2023-01-04T01:04:11;7.20;99.90
14014;DHT22;49110;52.584;13.408;2023-01-04T01:05:11;7.20;99.90
14014;DHT22;49110;52.584;13.408;2023-01-04T01:06:12;7.30;99.90
14014;DHT22;49110;52.584;13.408;2023-01-04T01:07:13;7.30;99.90
14014;DHT22;49110;52.584;13.408;2023-01-04T01:08:13;7.30;99.90
14014;DHT22;49110;52.584;13.408;2023-01-04T01:09:25;7.30;99.90
14014;DHT22;49110;52.584;13.408;2023-01-04T01:10:26;7.30;99.90
14014;DHT22;49110;52.584;13.408;2023-01-04T01:11:28;7.20;99.90
14014;DHT22;49110;52.584;13.408;2023-01-04T01:12:29;7.20;99.90
14014;DHT22;49110;52.584;13.408;2023-01-04T01:13:29;7.20;99.90
14014;DHT22;49110;52.584;13.408;2023-01-04T01:14:30;7.20;99.90
14014;DHT22;49110;52.584;13.408;2023-01-04T01:15:33;7.20;99.90
14014;DHT22;49110;52.584;13.408;2023-01-04T01:16:34;7.20;99.90
14014;DHT22;49110;52.584;13.408;2023-01-04T01:17:34;7.20;99.90
14014;DHT22;49110;52.584;13.408;2023-01-04T01:18:37;7.20;99.90
14014;DHT22;49110;52.584;13.408;2023-01-04T01:19:38;7.30;99.90
14014;DHT22;49110;52.584;13.408;2023-01-04T01:20:43;7.30;99.90
14014;DHT22;49110;52.584;13.408;2023-01-04T01:21:43;7.30;99.90
14014;DHT22;49110;52.584;13.408;2023-01-04T01:22:44;7.20;99.90
14014;DHT22;49110;52.584;13.408;2023-01-04T01:23:45;7.20;99.90
14014;DHT22;49110;52.584;13.408;2023-01-04T01:24:46;7.20;99.90
14014;DHT22;49110;52.584;13.408;2023-01-04T01:25:47;7.20;99.90
14014;DHT22;49110;52.584;13.408;2023-01-04T01:26:47;7.20;99.90
14014;DHT22;49110;52.584;13.408;2023-01-04T01:27:48;7.10;99.90
14014;DHT22;49110;52.584;13.408;2023-01-04T01:28:49;7.10;99.90
14014;DHT22;49110;52.584;13.408;2023-01-04T01:29:49;7.10;99.90
14014;DHT22;49110;52.584;13.408;2023-01-04T01:30:50;7.10;99.90
14014;DHT22;49110;52.584;13.408;2023-01-04T01:31:50;7.10;99.90
14014;DHT22;49110;52.584;13.408;2023-01-04T01:32:51;7.10;99.90
14014;DHT22;49110;52.584;13.408;2023-01-04T01:33:53;7.10;99.90
14014;DHT22;49110;52.584;13.408;2023-01-04T01:34:54;7.10;99.90
14014;DHT22;49110;52.584;13.408;2023-01-04T01:35:59;7.10;99.90
14014;DHT22;49110;52.584;13.408;2023-01-04T01:36:59;7.20;99.90
14014;DHT22;49110;52.584;13.408;2023-01-04T01:38:02;7.20;99.90
14014;DHT22;49110;52.584;13.408;2023-01-04T01:39:03;7.30;99.90
14014;DHT22;49110;52.584;13.408;2023-01-04T01:40:04;7.30;99.90
14014;DHT22;49110;52.584;13.408;2023-01-04T01:41:05;7.30;99.90
14014;DHT22;49110;52.584;13.408;2023-01-04T01:42:17;7.30;99.90
14014;DHT22;49110;52.584;13.408;2023-01-04T01:43:19;7.30;99.90
14014;DHT22;49110;52.584;13.408;2023-01-04T01:45:41;7.30;99.90
14014;DHT22;49110;52.584;13.408;2023-01-04T01:46:47;7.30;99.90
14014;DHT22;49110;52.584;13.408;2023-01-04T01:47:49;7.30;99.90
14014;DHT22;49110;52.584;13.408;2023-01-04T01:48:52;7.30;99.90
14014;DHT22;49110;52.584;13.408;2023-01-04T01:49:53;7.30;99.90
14014;DHT22;49110;52.584;13.408;2023-01-04T01:51:01;7.30;99.90
14014;DHT22;49110;52.584;13.408;2023-01-04T01:52:07;7.30;99.90
14014;DHT22;49110;52.584;13.408;2023-01-04T01:53:10;7.30;99.90
14014;DHT22;49110;52.584;13.408;2023-01-04T01:54:16;7.30;99.90
14014;DHT22;49110;52.584;13.408;2023-01-04T01:55:20;7.20;99.90
14014;DHT22;49110;52.584;13.408;2023-01-04T01:56:22;7.10;99.90
14014;DHT22;49110;52.584;13.408;2023-01-04T01:57:24;7.00;99.90
14014;DHT22;49110;52.584;13.408;2023-01-04T01:58:32;7.00;99.90
14014;DHT22;49110;52.584;13.408;2023-01-04T01:59:35;7.00;99.90
14014;DHT22;49110;52.584;13.408;2023-01-04T02:00:37;7.00;99.90
14014;DHT22;49110;52.584;13.408;2023-01-04T02:01:38;7.00;99.90
14014;DHT22;49110;52.584;13.408;2023-01-04T02:02:51;6.90;99.90
14014;DHT22;49110;52.584;13.408;2023-01-04T02:03:53;6.90;99.90
14014;DHT22;49110;52.584;13.408;2023-01-04T02:04:54;7.00;99.90
14014;DHT22;49110;52.584;13.408;2023-01-04T02:05:56;7.00;99.90
14014;DHT22;49110;52.584;13.408;2023-01-04T02:07:00;7.00;99.90
14014;DHT22;49110;52.584;13.408;2023-01-04T02:08:02;7.00;99.90
14014;DHT22;49110;52.584;13.408;2023-01-04T02:09:03;7.00;99.90
14014;DHT22;49110;52.584;13.408;2023-01-04T02:10:04;7.00;99.90
14014;DHT22;49110;52.584;13.408;2023-01-04T02:11:05;6.90;99.90
14014;DHT22;49110;52.584;13.408;2023-01-04T02:12:10;6.90;99.90
14014;DHT22;49110;52.584;13.408;2023-01-04T02:13:19;6.90;99.90
14014;DHT22;49110;52.584;13.408;2023-01-04T02:14:20;6.90;99.90
14014;DHT22;49110;52.584;13.408;2023-01-04T02:15:28;7.00;99.90
14014;DHT22;49110;52.584;13.408;2023-01-04T02:18:09;7.00;99.90
14014;DHT22;49110;52.584;13.408;2023-01-04T02:20:57;7.00;99.90
14014;DHT22;49110;52.584;13.408;2023-01-04T02:22:33;7.00;99.90
14014;DHT22;49110;52.584;13.408;2023-01-04T02:24:11;7.00;99.90
14014;DHT22;49110;52.584;13.408;2023-01-04T02:25:40;7.00;99.90
14014;DHT22;49110;52.584;13.408;2023-01-04T02:28:21;7.00;99.90
14014;DHT22;49110;52.584;13.408;2023-01-04T02:29:43;7.10;99.90
14014;DHT22;49110;52.584;13.408;2023-01-04T02:31:16;7.10;99.90
14014;DHT22;49110;52.584;13.408;2023-01-04T02:34:03;7.10;99.90
14014;DHT22;49110;52.584;13.408;2023-01-04T02:35:26;7.10;99.90
14014;DHT22;49110;52.584;13.408;2023-01-04T02:37:07;7.10;99.90
14014;DHT22;49110;52.584;13.408;2023-01-04T02:38:22;7.10;99.90
14014;DHT22;49110;52.584;13.408;2023-01-04T02:39:40;7.10;99.90
14014;DHT22;49110;52.584;13.408;2023-01-04T02:41:02;7.10;99.90
14014;DHT22;49110;52.584;13.408;2023-01-04T02:42:20;7.10;99.90
14014;DHT22;49110;52.584;13.408;2023-01-04T02:44:14;7.10;99.90
14014;DHT22;49110;52.584;13.408;2023-01-04T02:45:39;7.10;99.90
14014;DHT22;49110;52.584;13.408;2023-01-04T02:46:47;7.10;99.90
14014;DHT22;49110;52.584;13.408;2023-01-04T02:47:50;7.10;99.90
14014;DHT22;49110;52.584;13.408;2023-01-04T02:49:09;7.00;99.90
14014;DHT22;49110;52.584;13.408;2023-01-04T02:50:29;7.00;99.90
14014;DHT22;49110;52.584;13.408;2023-01-04T02:51:33;6.90;99.90
14014;DHT22;49110;52.584;13.408;2023-01-04T02:52:33;6.80;99.90
14014;DHT22;49110;52.584;13.408;2023-01-04T02:53:37;6.80;99.90
14014;DHT22;49110;52.584;13.408;2023-01-04T02:54:40;6.80;99.90
14014;DHT22;49110;52.584;13.408;2023-01-04T02:56:03;6.80;99.90
14014;DHT22;49110;52.584;13.408;2023-01-04T03:01:13;6.80;99.90
14014;DHT22;49110;52.584;13.408;2023-01-04T03:06:07;6.60;99.90
14014;DHT22;49110;52.584;13.408;2023-01-04T03:09:12;6.60;99.90
14014;DHT22;49110;52.584;13.408;2023-01-04T03:10:44;6.60;99.90
14014;DHT22;49110;52.584;13.408;2023-01-04T03:11:54;6.60;99.90
14014;DHT22;49110;52.584;13.408;2023-01-04T03:13:22;6.60;99.90
14014;DHT22;49110;52.584;13.408;2023-01-04T03:14:29;6.60;99.90
14014;DHT22;49110;52.584;13.408;2023-01-04T03:15:34;6.60;99.90
14014;DHT22;49110;52.584;13.408;2023-01-04T03:16:37;6.60;99.90
14014;DHT22;49110;52.584;13.408;2023-01-04T03:17:43;6.60;99.90
14014;DHT22;49110;52.584;13.408;2023-01-04T03:18:48;6.60;99.90
14014;DHT22;49110;52.584;13.408;2023-01-04T03:19:52;6.50;99.90
14014;DHT22;49110;52.584;13.408;2023-01-04T03:20:56;6.60;99.90
14014;DHT22;49110;52.584;13.408;2023-01-04T03:21:57;6.60;99.90
14014;DHT22;49110;52.584;13.408;2023-01-04T03:23:03;6.60;99.90
14014;DHT22;49110;52.584;13.408;2023-01-04T03:24:23;6.60;99.90
14014;DHT22;49110;52.584;13.408;2023-01-04T03:25:50;6.50;99.90
14014;DHT22;49110;52.584;13.408;2023-01-04T03:27:11;6.60;99.90
14014;DHT22;49110;52.584;13.408;2023-01-04T03:28:34;6.60;99.90
14014;DHT22;49110;52.584;13.408;2023-01-04T03:30:02;6.50;99.90
14014;DHT22;49110;52.584;13.408;2023-01-04T03:31:32;6.60;99.90
14014;DHT22;49110;52.584;13.408;2023-01-04T03:33:03;6.60;99.90
14014;DHT22;49110;52.584;13.408;2023-01-04T03:34:25;6.50;99.90
14014;DHT22;49110;52.584;13.408;2023-01-04T03:35:57;6.50;99.90
14014;DHT22;49110;52.584;13.408;2023-01-04T03:37:13;6.50;99.90
14014;DHT22;49110;52.584;13.408;2023-01-04T03:38:33;6.60;99.90
14014;DHT22;49110;52.584;13.408;2023-01-04T03:40:02;6.60;99.90
14014;DHT22;49110;52.584;13.408;2023-01-04T03:41:29;6.60;99.90
14014;DHT22;49110;52.584;13.408;2023-01-04T03:43:19;6.50;99.90
14014;DHT22;49110;52.584;13.408;2023-01-04T03:46:46;6.50;99.90
14014;DHT22;49110;52.584;13.408;2023-01-04T03:48:21;6.50;99.90
14014;DHT22;49110;52.584;13.408;2023-01-04T03:49:39;6.50;99.90
14014;DHT22;49110;52.584;13.408;2023-01-04T03:50:51;6.50;99.90
14014;DHT22;49110;52.584;13.408;2023-01-04T03:51:56;6.50;99.90
14014;DHT22;49110;52.584;13.408;2023-01-04T03:52:57;6.50;99.90
14014;DHT22;49110;52.584;13.408;2023-01-04T03:55:11;6.50;99.90
14014;DHT22;49110;52.584;13.408;2023-01-04T03:56:13;6.50;99.90
14014;DHT22;49110;52.584;13.408;2023-01-04T03:57:15;6.50;99.90
14014;DHT22;49110;52.584;13.408;2023-01-04T03:58:18;6.50;99.90
14014;DHT22;49110;52.584;13.408;2023-01-04T03:59:19;6.50;99.90
14014;DHT22;49110;52.584;13.408;2023-01-04T04:00:22;6.50;99.90
14014;DHT22;49110;52.584;13.408;2023-01-04T04:01:24;6.50;99.90
14014;DHT22;49110;52.584;13.408;2023-01-04T04:02:29;6.50;99.90
14014;DHT22;49110;52.584;13.408;2023-01-04T04:03:30;6.40;99.90
14014;DHT22;49110;52.584;13.408;2023-01-04T04:04:49;6.50;99.90
14014;DHT22;49110;52.584;13.408;2023-01-04T04:06:09;6.50;99.90
14014;DHT22;49110;52.584;13.408;2023-01-04T04:07:28;6.50;99.90
14014;DHT22;49110;52.584;13.408;2023-01-04T04:08:47;6.60;99.90
14014;DHT22;49110;52.584;13.408;2023-01-04T04:09:47;6.50;99.90
14014;DHT22;49110;52.584;13.408;2023-01-04T04:10:48;6.50;99.90
14014;DHT22;49110;52.584;13.408;2023-01-04T04:11:48;6.50;99.90
14014;DHT22;49110;52.584;13.408;2023-01-04T04:12:49;6.50;99.90
14014;DHT22;49110;52.584;13.408;2023-01-04T04:13:50;6.50;99.90
14014;DHT22;49110;52.584;13.408;2023-01-04T04:14:50;6.50;99.90
14014;DHT22;49110;52.584;13.408;2023-01-04T04:15:52;6.60;99.90
14014;DHT22;49110;52.584;13.408;2023-01-04T04:16:52;6.60;99.90
14014;DHT22;49110;52.584;13.408;2023-01-04T04:17:53;6.60;99.90
14014;DHT22;49110;52.584;13.408;2023-01-04T04:18:54;6.50;99.90
14014;DHT22;49110;52.584;13.408;2023-01-04T04:19:54;6.50;99.90
14014;DHT22;49110;52.584;13.408;2023-01-04T04:20:57;6.60;99.90
14014;DHT22;49110;52.584;13.408;2023-01-04T04:21:58;6.60;99.90
14014;DHT22;49110;52.584;13.408;2023-01-04T04:22:58;6.60;99.90
14014;DHT22;49110;52.584;13.408;2023-01-04T04:23:59;6.60;99.90
14014;DHT22;49110;52.584;13.408;2023-01-04T04:24:59;6.50;99.90
14014;DHT22;49110;52.584;13.408;2023-01-04T04:26:00;6.50;99.90
14014;DHT22;49110;52.584;13.408;2023-01-04T04:27:00;6.40;99.90
14014;DHT22;49110;52.584;13.408;2023-01-04T04:28:01;6.50;99.90
14014;DHT22;49110;52.584;13.408;2023-01-04T04:29:01;6.40;99.90
14014;DHT22;49110;52.584;13.408;2023-01-04T04:30:03;6.50;99.90
14014;DHT22;49110;52.584;13.408;2023-01-04T04:31:04;6.50;99.90
14014;DHT22;49110;52.584;13.408;2023-01-04T04:32:04;6.50;99.90
14014;DHT22;49110;52.584;13.408;2023-01-04T04:33:05;6.50;99.90
14014;DHT22;49110;52.584;13.408;2023-01-04T04:34:05;6.50;99.90
14014;DHT22;49110;52.584;13.408;2023-01-04T04:35:06;6.50;99.90
14014;DHT22;49110;52.584;13.408;2023-01-04T04:36:07;6.50;99.90
14014;DHT22;49110;52.584;13.408;2023-01-04T04:37:08;6.50;99.90
14014;DHT22;49110;52.584;13.408;2023-01-04T04:38:08;6.40;99.90
14014;DHT22;49110;52.584;13.408;2023-01-04T04:39:10;6.50;99.90
14014;DHT22;49110;52.584;13.408;2023-01-04T04:40:11;6.50;99.90
14014;DHT22;49110;52.584;13.408;2023-01-04T04:41:31;6.60;99.90
14014;DHT22;49110;52.584;13.408;2023-01-04T04:42:37;6.50;99.90
14014;DHT22;49110;52.584;13.408;2023-01-04T04:43:38;6.60;99.90
14014;DHT22;49110;52.584;13.408;2023-01-04T04:44:38;6.60;99.90
14014;DHT22;49110;52.584;13.408;2023-01-04T04:45:39;6.60;99.90
14014;DHT22;49110;52.584;13.408;2023-01-04T04:46:40;6.60;99.90
14014;DHT22;49110;52.584;13.408;2023-01-04T04:47:40;6.60;99.90
14014;DHT22;49110;52.584;13.408;2023-01-04T04:48:41;6.60;99.90
14014;DHT22;49110;52.584;13.408;2023-01-04T04:49:41;6.60;99.90
14014;DHT22;49110;52.584;13.408;2023-01-04T04:50:42;6.60;99.90
14014;DHT22;49110;52.584;13.408;2023-01-04T04:51:43;6.60;99.90
14014;DHT22;49110;52.584;13.408;2023-01-04T04:52:44;6.60;99.90
14014;DHT22;49110;52.584;13.408;2023-01-04T04:53:44;6.70;99.90
14014;DHT22;49110;52.584;13.408;2023-01-04T04:54:51;6.70;99.90
14014;DHT22;49110;52.584;13.408;2023-01-04T04:55:52;6.80;99.90
14014;DHT22;49110;52.584;13.408;2023-01-04T04:56:53;6.70;99.90
14014;DHT22;49110;52.584;13.408;2023-01-04T04:57:53;6.80;99.90
14014;DHT22;49110;52.584;13.408;2023-01-04T04:58:54;6.80;99.90
14014;DHT22;49110;52.584;13.408;2023-01-04T04:59:55;6.80;99.90
14014;DHT22;49110;52.584;13.408;2023-01-04T05:00:55;6.80;99.90
14014;DHT22;49110;52.584;13.408;2023-01-04T05:01:55;6.80;99.90
14014;DHT22;49110;52.584;13.408;2023-01-04T05:03:00;6.80;99.90
14014;DHT22;49110;52.584;13.408;2023-01-04T05:04:00;6.90;99.90
14014;DHT22;49110;52.584;13.408;2023-01-04T05:05:01;6.90;99.90
14014;DHT22;49110;52.584;13.408;2023-01-04T05:06:02;6.90;99.90
14014;DHT22;49110;52.584;13.408;2023-01-04T05:07:02;6.90;99.90
14014;DHT22;49110;52.584;13.408;2023-01-04T05:08:03;6.90;99.90
14014;DHT22;49110;52.584;13.408;2023-01-04T05:09:03;7.00;99.90
14014;DHT22;49110;52.584;13.408;2023-01-04T05:10:04;6.90;99.90
14014;DHT22;49110;52.584;13.408;2023-01-04T05:11:06;6.90;99.90
14014;DHT22;49110;52.584;13.408;2023-01-04T05:12:10;7.00;99.90
14014;DHT22;49110;52.584;13.408;2023-01-04T05:13:30;7.00;99.90
14014;DHT22;49110;52.584;13.408;2023-01-04T05:14:30;6.90;99.90
14014;DHT22;49110;52.584;13.408;2023-01-04T05:15:33;7.00;99.90
14014;DHT22;49110;52.584;13.408;2023-01-04T05:16:34;6.90;99.90
14014;DHT22;49110;52.584;13.408;2023-01-04T05:17:35;6.90;99.90
14014;DHT22;49110;52.584;13.408;2023-01-04T05:18:35;6.90;99.90
14014;DHT22;49110;52.584;13.408;2023-01-04T05:19:36;6.90;99.90
14014;DHT22;49110;52.584;13.408;2023-01-04T05:20:36;6.90;99.90
14014;DHT22;49110;52.584;13.408;2023-01-04T05:21:37;6.90;99.90
14014;DHT22;49110;52.584;13.408;2023-01-04T05:22:38;6.80;99.90
14014;DHT22;49110;52.584;13.408;2023-01-04T05:23:40;6.80;99.90
14014;DHT22;49110;52.584;13.408;2023-01-04T05:24:40;6.80;99.90
14014;DHT22;49110;52.584;13.408;2023-01-04T05:25:41;6.90;99.90
14014;DHT22;49110;52.584;13.408;2023-01-04T05:26:41;6.90;99.90
14014;DHT22;49110;52.584;13.408;2023-01-04T05:27:42;6.80;99.90
14014;DHT22;49110;52.584;13.408;2023-01-04T05:28:42;6.80;99.90
14014;DHT22;49110;52.584;13.408;2023-01-04T05:29:43;6.80;99.90
14014;DHT22;49110;52.584;13.408;2023-01-04T05:31:02;6.80;99.90
14014;DHT22;49110;52.584;13.408;2023-01-04T05:32:02;6.80;99.90
14014;DHT22;49110;52.584;13.408;2023-01-04T05:33:03;6.80;99.90
14014;DHT22;49110;52.584;13.408;2023-01-04T05:34:04;6.80;99.90
14014;DHT22;49110;52.584;13.408;2023-01-04T05:35:05;6.80;99.90
14014;DHT22;49110;52.584;13.408;2023-01-04T05:36:06;6.80;99.90
14014;DHT22;49110;52.584;13.408;2023-01-04T05:37:06;6.80;99.90
14014;DHT22;49110;52.584;13.408;2023-01-04T05:38:06;6.80;99.90
14014;DHT22;49110;52.584;13.408;2023-01-04T05:39:07;6.90;99.90
14014;DHT22;49110;52.584;13.408;2023-01-04T05:40:08;6.90;99.90
14014;DHT22;49110;52.584;13.408;2023-01-04T05:41:09;6.90;99.90
14014;DHT22;49110;52.584;13.408;2023-01-04T05:42:28;6.90;99.90
14014;DHT22;49110;52.584;13.408;2023-01-04T05:43:29;7.00;99.90
14014;DHT22;49110;52.584;13.408;2023-01-04T05:44:29;7.00;99.90
14014;DHT22;49110;52.584;13.408;2023-01-04T05:45:30;7.00;99.90
14014;DHT22;49110;52.584;13.408;2023-01-04T05:46:30;7.00;99.90
14014;DHT22;49110;52.584;13.408;2023-01-04T05:47:31;7.00;99.90
14014;DHT22;49110;52.584;13.408;2023-01-04T05:48:31;7.00;99.90
14014;DHT22;49110;52.584;13.408;2023-01-04T05:49:32;7.00;99.90
14014;DHT22;49110;52.584;13.408;2023-01-04T05:50:32;7.10;99.90
14014;DHT22;49110;52.584;13.408;2023-01-04T05:51:33;7.00;99.90
14014;DHT22;49110;52.584;13.408;2023-01-04T05:52:34;7.00;99.90
14014;DHT22;49110;52.584;13.408;2023-01-04T05:53:34;7.00;99.90
14014;DHT22;49110;52.584;13.408;2023-01-04T05:54:35;7.00;99.90
14014;DHT22;49110;52.584;13.408;2023-01-04T05:55:35;6.90;99.90
14014;DHT22;49110;52.584;13.408;2023-01-04T05:56:36;7.00;99.90
14014;DHT22;49110;52.584;13.408;2023-01-04T05:57:36;7.00;99.90
14014;DHT22;49110;52.584;13.408;2023-01-04T05:58:37;7.10;99.90
14014;DHT22;49110;52.584;13.408;2023-01-04T05:59:37;7.00;99.90
14014;DHT22;49110;52.584;13.408;2023-01-04T06:00:38;7.00;99.90
14014;DHT22;49110;52.584;13.408;2023-01-04T06:01:38;7.00;99.90
14014;DHT22;49110;52.584;13.408;2023-01-04T06:02:39;7.00;99.90
14014;DHT22;49110;52.584;13.408;2023-01-04T06:03:40;7.00;99.90
14014;DHT22;49110;52.584;13.408;2023-01-04T06:04:40;7.10;99.90
14014;DHT22;49110;52.584;13.408;2023-01-04T06:05:41;7.10;99.90
14014;DHT22;49110;52.584;13.408;2023-01-04T06:06:41;7.10;99.90
14014;DHT22;49110;52.584;13.408;2023-01-04T06:07:42;7.10;99.90
14014;DHT22;49110;52.584;13.408;2023-01-04T06:08:42;7.10;99.90
14014;DHT22;49110;52.584;13.408;2023-01-04T06:09:43;7.10;99.90
14014;DHT22;49110;52.584;13.408;2023-01-04T06:10:44;7.10;99.90
14014;DHT22;49110;52.584;13.408;2023-01-04T06:11:44;7.10;99.90
14014;DHT22;49110;52.584;13.408;2023-01-04T06:12:45;7.10;99.90
14014;DHT22;49110;52.584;13.408;2023-01-04T06:13:46;7.00;99.90
14014;DHT22;49110;52.584;13.408;2023-01-04T06:14:47;7.10;99.90
14014;DHT22;49110;52.584;13.408;2023-01-04T06:15:47;7.10;99.90
14014;DHT22;49110;52.584;13.408;2023-01-04T06:16:48;7.20;99.90
14014;DHT22;49110;52.584;13.408;2023-01-04T06:17:48;7.20;99.90
14014;DHT22;49110;52.584;13.408;2023-01-04T06:18:49;7.20;99.90
14014;DHT22;49110;52.584;13.408;2023-01-04T06:19:49;7.20;99.90
14014;DHT22;49110;52.584;13.408;2023-01-04T06:20:50;7.30;99.90
14014;DHT22;49110;52.584;13.408;2023-01-04T06:21:51;7.30;99.90
14014;DHT22;49110;52.584;13.408;2023-01-04T06:22:52;7.40;99.90
14014;DHT22;49110;52.584;13.408;2023-01-04T06:23:52;7.40;99.90
14014;DHT22;49110;52.584;13.408;2023-01-04T06:24:53;7.50;99.90
14014;DHT22;49110;52.584;13.408;2023-01-04T06:25:53;7.60;99.90
14014;DHT22;49110;52.584;13.408;2023-01-04T06:26:54;7.60;99.90
14014;DHT22;49110;52.584;13.408;2023-01-04T06:27:54;7.60;99.90
14014;DHT22;49110;52.584;13.408;2023-01-04T06:28:55;7.60;99.90
14014;DHT22;49110;52.584;13.408;2023-01-04T06:29:55;7.60;99.90
14014;DHT22;49110;52.584;13.408;2023-01-04T06:30:56;7.60;99.90
14014;DHT22;49110;52.584;13.408;2023-01-04T06:31:56;7.60;99.90
14014;DHT22;49110;52.584;13.408;2023-01-04T06:32:57;7.60;99.90
14014;DHT22;49110;52.584;13.408;2023-01-04T06:33:58;7.70;99.90
14014;DHT22;49110;52.584;13.408;2023-01-04T06:34:59;7.70;99.90
14014;DHT22;49110;52.584;13.408;2023-01-04T06:35:59;7.70;99.90
14014;DHT22;49110;52.584;13.408;2023-01-04T06:37:00;7.70;99.90
14014;DHT22;49110;52.584;13.408;2023-01-04T06:38:00;7.60;99.90
14014;DHT22;49110;52.584;13.408;2023-01-04T06:39:01;7.60;99.90
14014;DHT22;49110;52.584;13.408;2023-01-04T06:40:01;7.60;99.90
14014;DHT22;49110;52.584;13.408;2023-01-04T06:41:02;7.60;99.90
14014;DHT22;49110;52.584;13.408;2023-01-04T06:42:03;7.60;99.90
14014;DHT22;49110;52.584;13.408;2023-01-04T06:43:04;7.60;99.90
14014;DHT22;49110;52.584;13.408;2023-01-04T06:44:05;7.70;99.90
14014;DHT22;49110;52.584;13.408;2023-01-04T06:45:06;7.70;99.90
14014;DHT22;49110;52.584;13.408;2023-01-04T06:46:06;7.70;99.90
14014;DHT22;49110;52.584;13.408;2023-01-04T06:47:07;7.70;99.90
14014;DHT22;49110;52.584;13.408;2023-01-04T06:48:07;7.70;99.90
14014;DHT22;49110;52.584;13.408;2023-01-04T06:49:08;7.80;99.90
14014;DHT22;49110;52.584;13.408;2023-01-04T06:50:20;7.80;99.90
14014;DHT22;49110;52.584;13.408;2023-01-04T06:51:21;7.80;99.90
14014;DHT22;49110;52.584;13.408;2023-01-04T06:52:21;7.90;99.90
14014;DHT22;49110;52.584;13.408;2023-01-04T06:53:22;7.90;99.90
14014;DHT22;49110;52.584;13.408;2023-01-04T06:54:22;7.90;99.90
14014;DHT22;49110;52.584;13.408;2023-01-04T06:55:22;7.90;99.90
14014;DHT22;49110;52.584;13.408;2023-01-04T06:56:23;7.90;99.90
14014;DHT22;49110;52.584;13.408;2023-01-04T06:57:24;7.80;99.90
14014;DHT22;49110;52.584;13.408;2023-01-04T06:58:24;7.90;99.90
14014;DHT22;49110;52.584;13.408;2023-01-04T06:59:24;7.80;99.90
14014;DHT22;49110;52.584;13.408;2023-01-04T07:00:26;7.80;99.90
14014;DHT22;49110;52.584;13.408;2023-01-04T07:01:26;7.80;99.90
14014;DHT22;49110;52.584;13.408;2023-01-04T07:02:27;7.80;99.90
14014;DHT22;49110;52.584;13.408;2023-01-04T07:03:27;7.80;99.90
14014;DHT22;49110;52.584;13.408;2023-01-04T07:04:28;7.90;99.90
14014;DHT22;49110;52.584;13.408;2023-01-04T07:05:28;7.90;99.90
14014;DHT22;49110;52.584;13.408;2023-01-04T07:06:29;7.80;99.90
14014;DHT22;49110;52.584;13.408;2023-01-04T07:07:31;7.90;99.90